RYR99BQ LFRS-EGPH
Flight info
| Callsign | RYR99BQ |
|---|---|
| Flight time | N/A |
| Altitude | 38000 |
| Route | BALNI DCT RINSO UN867 VASUX DCT TNT UN57 POL UN601 RIBEL DCT INPIP |
| Aircraft | B738/M-SDE3FGILRWY/SB1 |
Departure
| Time | N/A |
|---|---|
| Airport | Nantes Atlantique Airport (LFRS) |
Arrival
| Time | 2026-05-07 14:42 |
|---|---|
| Airport | Edinburgh Airport (EGPH) |
| Time | Latitude | Longitude | Altitude | Speed | Heading |
|---|---|---|---|---|---|
| 2026-05-07 14:12 | 53.97508 | -2.26183 | 38047 ft | 451 kts | 336° |
| 2026-05-07 14:13 | 54.00417 | -2.28183 | 38030 ft | 451 kts | 336° |
| 2026-05-07 14:13 | 54.06248 | -2.32201 | 37617 ft | 457 kts | 336° |
| 2026-05-07 14:13 | 54.09184 | -2.34226 | 37297 ft | 451 kts | 337° |
| 2026-05-07 14:14 | 54.12087 | -2.36230 | 36843 ft | 448 kts | 337° |
| 2026-05-07 14:14 | 54.14946 | -2.38209 | 36464 ft | 443 kts | 337° |
| 2026-05-07 14:14 | 54.17788 | -2.40179 | 36076 ft | 439 kts | 337° |
| 2026-05-07 14:14 | 54.20604 | -2.42135 | 35689 ft | 435 kts | 338° |
| 2026-05-07 14:15 | 54.23401 | -2.44080 | 35299 ft | 432 kts | 337° |
| 2026-05-07 14:15 | 54.26174 | -2.46012 | 34905 ft | 429 kts | 337° |
| 2026-05-07 14:15 | 54.28899 | -2.47913 | 34519 ft | 427 kts | 337° |
| 2026-05-07 14:15 | 54.31639 | -2.49826 | 34141 ft | 424 kts | 338° |
| 2026-05-07 14:16 | 54.34366 | -2.51733 | 33720 ft | 422 kts | 338° |
| 2026-05-07 14:16 | 54.37075 | -2.53630 | 33295 ft | 420 kts | 337° |
| 2026-05-07 14:16 | 54.39768 | -2.55519 | 32903 ft | 416 kts | 337° |
| 2026-05-07 14:16 | 54.42436 | -2.57393 | 32520 ft | 413 kts | 337° |
| 2026-05-07 14:17 | 54.45084 | -2.59255 | 32151 ft | 410 kts | 337° |
| 2026-05-07 14:17 | 54.47710 | -2.61105 | 31797 ft | 406 kts | 336° |
| 2026-05-07 14:17 | 54.50318 | -2.62944 | 31433 ft | 403 kts | 336° |
| 2026-05-07 14:17 | 54.52906 | -2.64772 | 31077 ft | 401 kts | 336° |
| 2026-05-07 14:18 | 54.55475 | -2.66589 | 30723 ft | 398 kts | 336° |
| 2026-05-07 14:18 | 54.58009 | -2.68384 | 30377 ft | 395 kts | 336° |
| 2026-05-07 14:18 | 54.60548 | -2.70184 | 30022 ft | 393 kts | 336° |
| 2026-05-07 14:18 | 54.63061 | -2.71969 | 29608 ft | 390 kts | 336° |
| 2026-05-07 14:19 | 54.65559 | -2.73745 | 29226 ft | 387 kts | 336° |
| 2026-05-07 14:19 | 54.68040 | -2.75512 | 28675 ft | 384 kts | 336° |
| 2026-05-07 14:19 | 54.70509 | -2.77273 | 27921 ft | 384 kts | 336° |
| 2026-05-07 14:19 | 54.72978 | -2.79036 | 27259 ft | 382 kts | 335° |
| 2026-05-07 14:20 | 54.75420 | -2.80782 | 26716 ft | 377 kts | 335° |
| 2026-05-07 14:20 | 54.77834 | -2.82510 | 26158 ft | 374 kts | 335° |
| 2026-05-07 14:20 | 54.80226 | -2.84225 | 25589 ft | 371 kts | 335° |
| 2026-05-07 14:20 | 54.82611 | -2.85936 | 25006 ft | 369 kts | 335° |
| 2026-05-07 14:21 | 54.84975 | -2.87635 | 24438 ft | 367 kts | 335° |
| 2026-05-07 14:21 | 54.87315 | -2.89318 | 23911 ft | 364 kts | 335° |
| 2026-05-07 14:21 | 54.89647 | -2.91001 | 23346 ft | 362 kts | 334° |
| 2026-05-07 14:21 | 54.91959 | -2.92675 | 22750 ft | 358 kts | 334° |
| 2026-05-07 14:22 | 54.94247 | -2.94334 | 22195 ft | 354 kts | 334° |
| 2026-05-07 14:22 | 54.96510 | -2.95977 | 21629 ft | 351 kts | 334° |
| 2026-05-07 14:22 | 54.98754 | -2.97608 | 21091 ft | 347 kts | 334° |
| 2026-05-07 14:22 | 55.00974 | -2.99224 | 20555 ft | 344 kts | 334° |
| 2026-05-07 14:23 | 55.03173 | -3.00827 | 20030 ft | 341 kts | 334° |
| 2026-05-07 14:23 | 55.05355 | -3.02419 | 19512 ft | 339 kts | 334° |
| 2026-05-07 14:23 | 55.07521 | -3.04001 | 18996 ft | 337 kts | 334° |
| 2026-05-07 14:23 | 55.09644 | -3.05554 | 18510 ft | 334 kts | 334° |
| 2026-05-07 14:24 | 55.11804 | -3.07135 | 17970 ft | 331 kts | 335° |
| 2026-05-07 14:24 | 55.13887 | -3.08660 | 17419 ft | 328 kts | 334° |
| 2026-05-07 14:24 | 55.15982 | -3.10197 | 16871 ft | 326 kts | 334° |
| 2026-05-07 14:24 | 55.18061 | -3.11720 | 16337 ft | 322 kts | 334° |
| 2026-05-07 14:25 | 55.20117 | -3.13228 | 15847 ft | 319 kts | 334° |
| 2026-05-07 14:25 | 55.22154 | -3.14724 | 15347 ft | 316 kts | 334° |
| 2026-05-07 14:25 | 55.24174 | -3.16209 | 14856 ft | 314 kts | 333° |
| 2026-05-07 14:25 | 55.26182 | -3.17687 | 14375 ft | 312 kts | 333° |
| 2026-05-07 14:26 | 55.28175 | -3.19155 | 13927 ft | 309 kts | 333° |
| 2026-05-07 14:26 | 55.30133 | -3.20598 | 13427 ft | 306 kts | 333° |
| 2026-05-07 14:26 | 55.32089 | -3.22042 | 12918 ft | 303 kts | 333° |
| 2026-05-07 14:26 | 55.34028 | -3.23475 | 12369 ft | 302 kts | 332° |
| 2026-05-07 14:27 | 55.35955 | -3.24901 | 11874 ft | 299 kts | 332° |
| 2026-05-07 14:27 | 55.37863 | -3.26316 | 11387 ft | 296 kts | 332° |
| 2026-05-07 14:27 | 55.39750 | -3.27714 | 10919 ft | 293 kts | 332° |
| 2026-05-07 14:27 | 55.41615 | -3.29098 | 10445 ft | 291 kts | 332° |
| 2026-05-07 14:28 | 55.43474 | -3.30480 | 9992 ft | 289 kts | 332° |
| 2026-05-07 14:28 | 55.45316 | -3.31850 | 9473 ft | 287 kts | 332° |
| 2026-05-07 14:28 | 55.47150 | -3.33208 | 8931 ft | 285 kts | 332° |
| 2026-05-07 14:28 | 55.48990 | -3.34530 | 8396 ft | 287 kts | 339° |
| 2026-05-07 14:29 | 55.50977 | -3.34699 | 7853 ft | 292 kts | 13° |
| 2026-05-07 14:29 | 55.52833 | -3.33259 | 7356 ft | 292 kts | 27° |
| 2026-05-07 14:29 | 55.54588 | -3.31541 | 6933 ft | 289 kts | 28° |
| 2026-05-07 14:29 | 55.56340 | -3.29835 | 6487 ft | 289 kts | 27° |
| 2026-05-07 14:30 | 55.58113 | -3.28161 | 6161 ft | 290 kts | 26° |
| 2026-05-07 14:30 | 55.59898 | -3.26504 | 5877 ft | 287 kts | 28° |
| 2026-05-07 14:30 | 55.61648 | -3.24777 | 5477 ft | 290 kts | 29° |
| 2026-05-07 14:30 | 55.63402 | -3.23015 | 5229 ft | 288 kts | 29° |
| 2026-05-07 14:31 | 55.65132 | -3.21272 | 4988 ft | 284 kts | 29° |
| 2026-05-07 14:31 | 55.66863 | -3.19526 | 4578 ft | 288 kts | 30° |
| 2026-05-07 14:31 | 55.68599 | -3.17798 | 4377 ft | 285 kts | 29° |
| 2026-05-07 14:31 | 55.70362 | -3.16245 | 4100 ft | 284 kts | 21° |
| 2026-05-07 14:32 | 55.72207 | -3.15017 | 3857 ft | 283 kts | 20° |
| 2026-05-07 14:32 | 55.74032 | -3.13764 | 3649 ft | 279 kts | 21° |
| 2026-05-07 14:32 | 55.75805 | -3.12458 | 3482 ft | 275 kts | 22° |
| 2026-05-07 14:32 | 55.77560 | -3.11082 | 3126 ft | 277 kts | 24° |
| 2026-05-07 14:33 | 55.79300 | -3.09658 | 3021 ft | 274 kts | 24° |
| 2026-05-07 14:33 | 55.81022 | -3.08216 | 3003 ft | 272 kts | 25° |
| 2026-05-07 14:33 | 55.82731 | -3.06775 | 3015 ft | 272 kts | 25° |
| 2026-05-07 14:33 | 55.84457 | -3.05318 | 2998 ft | 275 kts | 25° |
| 2026-05-07 14:34 | 55.86244 | -3.04165 | 2983 ft | 273 kts | 8° |
| 2026-05-07 14:34 | 55.87487 | -3.03837 | 2998 ft | 273 kts | 5° |
| 2026-05-07 14:34 | 55.89368 | -3.03345 | 2993 ft | 273 kts | 7° |
| 2026-05-07 14:34 | 55.91242 | -3.02793 | 2999 ft | 273 kts | 7° |
| 2026-05-07 14:35 | 55.93122 | -3.02209 | 2993 ft | 274 kts | 8° |
| 2026-05-07 14:35 | 55.95009 | -3.01737 | 2978 ft | 272 kts | 357° |
| 2026-05-07 14:35 | 55.96849 | -3.02114 | 3011 ft | 260 kts | 348° |
| 2026-05-07 14:35 | 55.98579 | -3.02573 | 2995 ft | 244 kts | 348° |
| 2026-05-07 14:36 | 56.00206 | -3.02971 | 2972 ft | 231 kts | 348° |
| 2026-05-07 14:36 | 56.01767 | -3.03447 | 2988 ft | 225 kts | 342° |
| 2026-05-07 14:36 | 56.03261 | -3.04134 | 2999 ft | 220 kts | 336° |
| 2026-05-07 14:36 | 56.04485 | -3.05500 | 2954 ft | 197 kts | 298° |
| 2026-05-07 14:37 | 56.04766 | -3.07657 | 2997 ft | 174 kts | 250° |
| 2026-05-07 14:37 | 56.03702 | -3.11456 | 3002 ft | 171 kts | 238° |
| 2026-05-07 14:37 | 56.03123 | -3.13275 | 2960 ft | 170 kts | 237° |
| 2026-05-07 14:38 | 56.02520 | -3.15084 | 2831 ft | 170 kts | 236° |
| 2026-05-07 14:38 | 56.01905 | -3.16896 | 2597 ft | 170 kts | 236° |
| 2026-05-07 14:38 | 56.01296 | -3.18687 | 2385 ft | 168 kts | 236° |
| 2026-05-07 14:38 | 56.00696 | -3.20452 | 2159 ft | 167 kts | 236° |
| 2026-05-07 14:39 | 56.00091 | -3.22231 | 1920 ft | 169 kts | 235° |
| 2026-05-07 14:39 | 55.99495 | -3.23988 | 1700 ft | 158 kts | 236° |
| 2026-05-07 14:39 | 55.98959 | -3.25568 | 1480 ft | 138 kts | 236° |
| 2026-05-07 14:39 | 55.98493 | -3.26940 | 1306 ft | 125 kts | 236° |
| 2026-05-07 14:40 | 55.98037 | -3.28281 | 1137 ft | 130 kts | 237° |
| 2026-05-07 14:40 | 55.97562 | -3.29685 | 975 ft | 135 kts | 237° |
| 2026-05-07 14:40 | 55.97084 | -3.31092 | 768 ft | 130 kts | 235° |
| 2026-05-07 14:40 | 55.96604 | -3.32500 | 601 ft | 132 kts | 236° |
| 2026-05-07 14:41 | 55.96135 | -3.33912 | 384 ft | 132 kts | 236° |
| 2026-05-07 14:41 | 55.95665 | -3.35294 | 231 ft | 129 kts | 236° |
| 2026-05-07 14:41 | 55.95209 | -3.36647 | 110 ft | 120 kts | 236° |
| 2026-05-07 14:41 | 55.94886 | -3.37581 | 112 ft | 60 kts | 238° |
| 2026-05-07 14:42 | 55.94732 | -3.38031 | 113 ft | 18 kts | 232° |
| 2026-05-07 14:42 | 55.94628 | -3.37988 | 113 ft | 16 kts | 149° |
| 2026-05-07 14:42 | 55.94593 | -3.37887 | 114 ft | 10 kts | 72° |
| 2026-05-07 14:42 | 55.94627 | -3.37776 | 114 ft | 11 kts | 58° |
| 2026-05-07 14:43 | 55.94672 | -3.37645 | 112 ft | 13 kts | 59° |
| 2026-05-07 14:43 | 55.94720 | -3.37502 | 114 ft | 14 kts | 58° |
| 2026-05-07 14:43 | 55.94777 | -3.37337 | 113 ft | 17 kts | 59° |
| 2026-05-07 14:43 | 55.94845 | -3.37135 | 115 ft | 21 kts | 59° |
| 2026-05-07 14:44 | 55.94925 | -3.36900 | 114 ft | 23 kts | 59° |
| 2026-05-07 14:44 | 55.95009 | -3.36652 | 115 ft | 24 kts | 59° |
| 2026-05-07 14:44 | 55.95092 | -3.36405 | 114 ft | 23 kts | 59° |
| 2026-05-07 14:44 | 55.95136 | -3.36235 | 115 ft | 9 kts | 102° |
| 2026-05-07 14:45 | 55.95116 | -3.36117 | 115 ft | 11 kts | 108° |
| 2026-05-07 14:45 | 55.95084 | -3.35968 | 115 ft | 14 kts | 118° |
| 2026-05-07 14:45 | 55.95048 | -3.35847 | 113 ft | 6 kts | 129° |
| 2026-05-07 14:45 | 55.95007 | -3.35838 | 114 ft | 7 kts | 202° |
| 2026-05-07 14:46 | 55.94961 | -3.35871 | 115 ft | 7 kts | 216° |
| 2026-05-07 14:46 | 55.94944 | -3.35953 | 115 ft | 7 kts | 254° |
| 2026-05-07 14:46 | 55.94940 | -3.35979 | 112 ft | 0 kts | 255° |